Time;durP1;ratioP1;P1;durP2;ratioP2;P2;SDS_P1;SDS_P2;PMS_P1;PMS_P2;Temp;Humidity;BMP_temperature;BMP_pressure;BME280_temperature;BME280_humidity;BME280_pressure;Samples;Min_cycle;Max_cycle;Signal;HPM_P1;HPM_P2
2023/08/20 00:00:31;;;;;;;8.60;3.88;;;16.30;99.90;;;;;;5049857;28;20032;-50
2023/08/20 00:03:03;;;;;;;5.40;3.47;;;16.40;99.90;;;;;;5049649;28;20060;-50
2023/08/20 00:05:29;;;;;;;8.00;3.53;;;16.30;99.90;;;;;;5049283;28;20067;-53
2023/08/20 00:07:55;;;;;;;7.38;4.45;;;16.30;99.90;;;;;;5015005;28;20040;-52
2023/08/20 00:10:21;;;;;;;13.95;4.85;;;16.20;99.90;;;;;;5048873;28;20039;-51
2023/08/20 00:12:46;;;;;;;8.80;4.55;;;16.20;99.90;;;;;;5049972;28;20079;-54
2023/08/20 00:15:12;;;;;;;10.50;5.20;;;16.20;99.90;;;;;;5049518;28;20689;-50
2023/08/20 00:17:39;;;;;;;14.52;5.22;;;16.20;99.90;;;;;;5049334;28;20036;-52
2023/08/20 00:20:12;;;;;;;12.60;4.97;;;16.20;99.90;;;;;;5048757;28;20079;-54
2023/08/20 00:22:39;;;;;;;13.52;6.03;;;16.20;99.90;;;;;;5049607;28;20122;-51
2023/08/20 00:25:07;;;;;;;8.82;4.82;;;16.20;99.90;;;;;;5048432;28;20417;-53
2023/08/20 00:27:33;;;;;;;11.05;5.70;;;16.30;99.90;;;;;;5045910;28;20292;-50
2023/08/20 00:29:58;;;;;;;10.75;4.97;;;16.30;99.90;;;;;;5041656;28;20481;-50
2023/08/20 00:32:24;;;;;;;11.85;5.53;;;16.30;99.90;;;;;;5031026;28;20103;-50
2023/08/20 00:34:50;;;;;;;9.68;5.10;;;16.40;99.90;;;;;;5041043;28;20041;-54
2023/08/20 00:37:16;;;;;;;11.10;5.45;;;16.40;99.90;;;;;;5049066;28;20045;-54
2023/08/20 00:39:41;;;;;;;13.20;5.18;;;16.40;99.90;;;;;;5048242;28;20040;-53
2023/08/20 00:42:07;;;;;;;14.07;5.55;;;16.40;99.90;;;;;;5049292;28;20548;-50
2023/08/20 00:44:34;;;;;;;8.27;3.47;;;16.50;99.90;;;;;;5049440;28;20041;-50
2023/08/20 00:47:02;;;;;;;8.02;4.20;;;16.50;99.90;;;;;;5049128;28;20474;-50
2023/08/20 00:49:29;;;;;;;11.60;4.28;;;16.40;99.90;;;;;;5048441;28;20406;-53
2023/08/20 00:51:55;;;;;;;5.78;3.08;;;16.40;99.90;;;;;;5029293;28;20050;-52
2023/08/20 00:54:22;;;;;;;10.32;4.53;;;16.40;99.90;;;;;;5036755;28;20135;-53
2023/08/20 00:56:50;;;;;;;5.45;4.07;;;16.30;99.90;;;;;;5049207;28;20462;-52
2023/08/20 00:59:16;;;;;;;9.00;4.05;;;16.40;99.90;;;;;;5048474;28;20041;-50
2023/08/20 01:01:42;;;;;;;9.77;3.85;;;16.30;99.90;;;;;;5051653;28;20044;-54
2023/08/20 01:04:07;;;;;;;11.52;4.95;;;16.30;99.90;;;;;;5053118;28;20033;-52
2023/08/20 01:06:46;;;;;;;15.40;5.47;;;16.30;99.90;;;;;;5052136;28;20039;-49
2023/08/20 01:09:29;;;;;;;10.82;6.35;;;16.30;99.90;;;;;;5052240;28;20424;-50
2023/08/20 01:12:02;;;;;;;20.83;6.93;;;16.40;99.90;;;;;;5053318;28;20048;-49
2023/08/20 01:14:28;;;;;;;14.35;7.28;;;16.40;99.90;;;;;;5053035;28;20044;-52
2023/08/20 01:16:53;;;;;;;18.80;8.00;;;16.50;99.90;;;;;;5052378;28;20037;-50
2023/08/20 01:19:21;;;;;;;10.70;6.40;;;16.50;99.90;;;;;;5051351;28;20399;-52
2023/08/20 01:22:13;;;;;;;14.88;6.30;;;16.60;99.90;;;;;;5052876;28;20041;-52
2023/08/20 01:24:54;;;;;;;12.52;6.07;;;16.60;99.90;;;;;;5053193;28;20039;-52
2023/08/20 01:27:28;;;;;;;9.98;5.50;;;16.60;99.90;;;;;;5052257;28;20490;-53
2023/08/20 01:29:55;;;;;;;8.25;4.65;;;16.60;99.90;;;;;;5051398;28;20379;-49
2023/08/20 01:32:22;;;;;;;10.18;5.25;;;16.60;99.90;;;;;;5052672;28;20041;-52
2023/08/20 01:34:48;;;;;;;7.70;4.22;;;16.50;99.90;;;;;;5034760;28;20033;-50
2023/08/20 01:37:14;;;;;;;4.93;3.58;;;16.50;99.90;;;;;;5052253;28;20051;-50
2023/08/20 01:39:39;;;;;;;11.00;4.40;;;16.40;99.90;;;;;;5051373;28;20414;-50
2023/08/20 01:42:06;;;;;;;11.20;4.60;;;16.30;99.90;;;;;;5052100;28;20046;-53
2023/08/20 01:44:31;;;;;;;;;;;16.30;99.90;;;;;;5035197;28;20091;-54
2023/08/20 01:46:57;;;;;;;11.45;4.30;;;16.30;99.90;;;;;;5052199;28;19916;-53
2023/08/20 01:49:23;;;;;;;;;;;16.20;99.90;;;;;;5051796;28;20083;-50
2023/08/20 01:51:48;;;;;;;4.32;3.95;;;16.10;99.90;;;;;;5052486;28;19959;-53
2023/08/20 01:54:14;;;;;;;3.55;3.22;;;16.00;99.90;;;;;;5052021;28;20095;-53
2023/08/20 01:56:40;;;;;;;5.65;3.00;;;15.90;99.90;;;;;;5051376;28;20037;-51
2023/08/20 01:59:06;;;;;;;2.78;2.58;;;15.90;99.90;;;;;;5051410;28;20505;-50
2023/08/20 02:01:32;;;;;;;4.32;3.03;;;15.90;99.90;;;;;;5051916;28;20036;-53
2023/08/20 02:03:57;;;;;;;15.80;3.47;;;15.90;99.90;;;;;;5034106;28;20094;-50
2023/08/20 02:06:23;;;;;;;11.20;6.50;;;15.90;99.90;;;;;;5051760;28;20501;-51
2023/08/20 02:08:48;;;;;;;10.90;6.85;;;15.90;99.90;;;;;;5051342;28;20037;-51
2023/08/20 02:11:14;;;;;;;14.60;5.50;;;16.00;99.90;;;;;;5051562;28;20384;-50
2023/08/20 02:13:39;;;;;;;10.35;4.97;;;16.00;99.90;;;;;;5051353;28;20111;-52
2023/08/20 02:16:06;;;;;;;3.53;1.60;;;16.00;99.90;;;;;;5051658;28;20401;-53
2023/08/20 02:18:32;;;;;;;4.03;2.60;;;16.00;99.90;;;;;;5050933;28;20072;-50
2023/08/20 02:20:57;;;;;;;4.80;2.47;;;15.90;99.90;;;;;;5051966;28;20072;-50
2023/08/20 02:23:23;;;;;;;5.43;2.53;;;15.80;99.90;;;;;;5051926;28;20052;-51
2023/08/20 02:25:49;;;;;;;6.18;3.10;;;15.80;99.90;;;;;;5051012;28;20033;-51
2023/08/20 02:28:15;;;;;;;9.80;4.85;;;15.80;99.90;;;;;;5051049;28;20040;-50
2023/08/20 02:30:42;;;;;;;8.63;4.45;;;15.80;99.90;;;;;;5051617;28;20036;-51
2023/08/20 02:33:08;;;;;;;8.43;4.05;;;15.90;99.90;;;;;;5051714;28;20073;-53
2023/08/20 02:35:34;;;;;;;8.73;4.28;;;15.90;99.90;;;;;;5051074;28;20041;-55
2023/08/20 02:37:59;;;;;;;6.57;4.50;;;16.00;99.90;;;;;;5051236;28;20045;-53
2023/08/20 02:40:25;;;;;;;10.13;4.70;;;16.00;99.90;;;;;;5035181;28;20041;-50
2023/08/20 02:42:50;;;;;;;6.93;4.10;;;16.00;99.90;;;;;;5050871;28;20041;-50
2023/08/20 02:45:16;;;;;;;8.20;4.78;;;16.00;99.90;;;;;;5046396;28;20613;-50
2023/08/20 02:47:41;;;;;;;6.72;5.63;;;16.00;99.90;;;;;;5051071;28;20032;-53
2023/08/20 02:50:07;;;;;;;9.10;6.35;;;16.00;99.90;;;;;;5035889;28;20060;-50
2023/08/20 02:52:33;;;;;;;10.43;6.60;;;16.00;99.90;;;;;;5049726;28;20414;-51
2023/08/20 02:54:59;;;;;;;12.98;7.65;;;16.00;99.90;;;;;;5041201;28;20041;-54
2023/08/20 02:57:24;;;;;;;6.90;5.30;;;16.00;99.90;;;;;;5048368;28;20041;-51
2023/08/20 02:59:50;;;;;;;4.63;4.22;;;16.00;99.90;;;;;;5042395;28;20120;-52
2023/08/20 03:02:16;;;;;;;;;;;16.00;99.90;;;;;;5046096;28;20045;-53
2023/08/20 03:04:41;;;;;;;6.72;6.05;;;15.90;99.90;;;;;;5050756;28;19917;-52
2023/08/20 03:07:07;;;;;;;11.63;7.40;;;15.90;99.90;;;;;;5050479;28;20040;-50
2023/08/20 03:09:32;;;;;;;136.57;11.95;;;15.90;99.90;;;;;;5049568;28;20096;-49
2023/08/20 03:11:58;;;;;;;10.35;5.53;;;15.90;99.90;;;;;;5051033;28;20029;-51
2023/08/20 03:14:24;;;;;;;18.77;5.35;;;15.80;99.90;;;;;;5051121;28;20486;-49
2023/08/20 03:16:49;;;;;;;5.35;4.85;;;15.70;99.90;;;;;;5050170;28;20213;-50
2023/08/20 03:19:15;;;;;;;7.70;5.13;;;15.60;99.90;;;;;;5050035;28;20045;-50
2023/08/20 03:21:41;;;;;;;9.70;5.97;;;15.50;99.90;;;;;;5050729;28;20120;-50
2023/08/20 03:24:07;;;;;;;8.98;5.45;;;15.50;99.90;;;;;;5050383;28;20116;-50
2023/08/20 03:26:33;;;;;;;6.07;5.57;;;15.40;99.90;;;;;;5050549;28;20065;-50
2023/08/20 03:28:59;;;;;;;10.43;5.68;;;15.40;99.90;;;;;;5049866;28;20080;-53
2023/08/20 03:31:24;;;;;;;10.95;5.93;;;15.40;99.90;;;;;;5031907;28;20044;-56
2023/08/20 03:33:50;;;;;;;8.90;5.40;;;15.40;99.90;;;;;;5032188;28;20043;-53
2023/08/20 03:36:16;;;;;;;9.05;5.15;;;15.30;99.90;;;;;;5049847;28;20068;-49
2023/08/20 03:38:42;;;;;;;9.95;6.50;;;15.30;99.90;;;;;;5048996;28;20401;-56
2023/08/20 03:41:07;;;;;;;10.30;5.63;;;15.30;99.90;;;;;;5050406;28;20033;-54
2023/08/20 03:43:33;;;;;;;8.00;6.57;;;15.30;99.90;;;;;;5050183;28;20048;-53
2023/08/20 03:45:58;;;;;;;7.65;5.10;;;15.30;99.90;;;;;;5049956;28;20036;-53
2023/08/20 03:48:24;;;;;;;9.10;5.07;;;15.40;99.90;;;;;;5048858;28;20461;-53
2023/08/20 03:50:49;;;;;;;10.05;6.13;;;15.30;99.90;;;;;;5050301;28;20041;-54
2023/08/20 03:53:15;;;;;;;5.88;4.93;;;15.30;99.90;;;;;;5049422;28;20040;-52
2023/08/20 03:55:41;;;;;;;4.90;4.50;;;15.30;99.90;;;;;;5049790;28;20091;-50
2023/08/20 03:58:07;;;;;;;4.72;4.10;;;15.20;99.90;;;;;;5049405;28;20048;-51
2023/08/20 04:00:34;;;;;;;4.13;3.60;;;15.20;99.90;;;;;;5048525;28;20025;-53
2023/08/20 04:03:00;;;;;;;3.58;2.72;;;15.10;99.90;;;;;;5021309;28;20042;-53
2023/08/20 04:05:26;;;;;;;1.73;1.63;;;15.10;99.90;;;;;;5031700;28;20038;-50
2023/08/20 04:07:51;;;;;;;3.63;2.72;;;15.10;99.90;;;;;;5048680;28;20033;-50
2023/08/20 04:10:17;;;;;;;2.15;1.95;;;15.10;99.90;;;;;;5048289;28;20037;-52
2023/08/20 04:12:42;;;;;;;3.03;2.60;;;15.00;99.90;;;;;;5041045;28;20049;-51
2023/08/20 04:15:08;;;;;;;6.93;1.30;;;15.00;99.90;;;;;;5040793;28;20041;-49
2023/08/20 04:17:34;;;;;;;1.80;1.70;;;15.00;99.90;;;;;;5046340;28;20040;-50
2023/08/20 04:19:59;;;;;;;2.42;1.83;;;14.90;99.90;;;;;;5048823;28;20044;-51
2023/08/20 04:22:25;;;;;;;1.80;1.70;;;14.90;99.90;;;;;;5048929;28;20044;-52
2023/08/20 04:24:51;;;;;;;3.58;3.05;;;14.90;99.90;;;;;;5049616;28;20037;-51
2023/08/20 04:27:16;;;;;;;13.93;9.18;;;14.90;99.90;;;;;;5048970;28;20041;-51
2023/08/20 04:29:42;;;;;;;8.10;5.88;;;15.00;99.90;;;;;;5048957;28;20036;-53
2023/08/20 04:32:10;;;;;;;11.32;7.40;;;15.00;99.90;;;;;;5049273;28;20040;-53
2023/08/20 04:34:36;;;;;;;9.10;7.88;;;15.10;99.90;;;;;;5049999;28;20049;-51
2023/08/20 04:37:01;;;;;;;15.52;10.52;;;15.10;99.90;;;;;;5047980;28;20412;-51
2023/08/20 04:39:27;;;;;;;17.98;11.93;;;15.10;99.90;;;;;;5047717;28;20098;-53
2023/08/20 04:41:53;;;;;;;17.40;11.13;;;15.20;99.90;;;;;;5049685;28;20123;-50
2023/08/20 04:44:18;;;;;;;17.08;10.77;;;15.30;99.90;;;;;;5049276;28;20040;-50
2023/08/20 04:46:44;;;;;;;13.82;10.80;;;15.40;99.90;;;;;;5049229;28;20048;-52
2023/08/20 04:49:09;;;;;;;11.20;10.05;;;15.40;99.90;;;;;;5048032;28;20103;-52
2023/08/20 04:51:35;;;;;;;11.90;9.30;;;15.50;99.90;;;;;;5049000;28;20108;-51
2023/08/20 04:54:01;;;;;;;11.95;8.00;;;15.50;99.90;;;;;;5049497;28;20103;-50
2023/08/20 04:56:26;;;;;;;9.60;7.40;;;15.50;99.90;;;;;;5048922;28;20044;-49
2023/08/20 04:58:52;;;;;;;7.35;6.30;;;15.50;99.90;;;;;;5047780;28;20076;-50
2023/08/20 05:01:17;;;;;;;7.60;6.57;;;15.40;99.90;;;;;;5049533;28;20037;-54
2023/08/20 05:03:43;;;;;;;11.23;6.57;;;15.40;99.90;;;;;;5031142;28;20578;-51
2023/08/20 05:06:08;;;;;;;10.70;8.73;;;15.40;99.90;;;;;;5048671;28;20414;-50
2023/08/20 05:08:34;;;;;;;11.68;8.98;;;15.40;99.90;;;;;;5048603;28;20037;-50
2023/08/20 05:11:01;;;;;;;12.10;8.88;;;15.40;99.90;;;;;;5049740;28;20478;-51
2023/08/20 05:13:26;;;;;;;10.88;8.68;;;15.50;99.90;;;;;;5049141;28;20431;-50
2023/08/20 05:15:52;;;;;;;13.38;9.43;;;15.50;99.90;;;;;;5048960;28;20159;-53
2023/08/20 05:18:17;;;;;;;12.05;10.82;;;15.50;99.90;;;;;;5038685;28;20075;-50
2023/08/20 05:20:43;;;;;;;17.33;12.05;;;15.50;99.90;;;;;;5031953;28;20379;-51
2023/08/20 05:23:08;;;;;;;20.67;12.05;;;15.60;99.90;;;;;;5033299;28;20036;-52
2023/08/20 05:25:34;;;;;;;17.38;11.98;;;15.70;99.90;;;;;;5033715;28;20490;-51
2023/08/20 05:28:01;;;;;;;18.65;12.02;;;15.70;99.90;;;;;;5032812;28;20041;-50
2023/08/20 05:30:26;;;;;;;15.63;11.57;;;15.90;99.90;;;;;;5048249;28;20120;-54
2023/08/20 05:32:52;;;;;;;17.80;12.20;;;16.00;99.90;;;;;;5048853;28;20171;-56
2023/08/20 05:35:17;;;;;;;16.63;13.35;;;16.10;99.90;;;;;;5047977;28;20045;-55
2023/08/20 05:37:43;;;;;;;17.80;12.75;;;16.20;99.90;;;;;;5048785;28;20037;-55
2023/08/20 05:40:09;;;;;;;16.98;12.10;;;16.30;99.90;;;;;;5048202;28;20044;-52
2023/08/20 05:42:35;;;;;;;;;;;16.40;99.90;;;;;;5049342;28;20041;-53
2023/08/20 05:45:00;;;;;;;16.27;11.70;;;16.50;99.90;;;;;;5048369;28;20058;-55
2023/08/20 05:47:26;;;;;;;19.60;12.32;;;16.60;99.90;;;;;;5048968;28;20538;-51
2023/08/20 05:49:51;;;;;;;14.02;11.38;;;16.70;99.90;;;;;;5047610;28;20112;-50
2023/08/20 05:52:17;;;;;;;15.93;13.23;;;16.80;99.90;;;;;;5027946;28;20052;-50
2023/08/20 05:54:42;;;;;;;13.80;11.90;;;16.90;99.90;;;;;;5046124;28;20033;-51
2023/08/20 05:57:08;;;;;;;21.13;13.05;;;17.00;99.90;;;;;;5051931;28;20037;-54
2023/08/20 05:59:34;;;;;;;22.02;13.60;;;17.10;99.90;;;;;;5050939;28;20267;-50
2023/08/20 06:02:01;;;;;;;21.58;13.20;;;17.20;99.90;;;;;;5047824;28;20084;-50
2023/08/20 06:04:27;;;;;;;17.13;12.07;;;17.20;99.90;;;;;;5028087;28;20044;-54
2023/08/20 06:06:52;;;;;;;15.55;12.65;;;17.40;99.90;;;;;;5045045;28;20411;-50
2023/08/20 06:09:18;;;;;;;25.05;13.10;;;17.50;99.90;;;;;;5020387;28;20082;-51
2023/08/20 06:11:43;;;;;;;17.90;14.07;;;17.60;99.90;;;;;;5048725;28;20041;-50
2023/08/20 06:14:09;;;;;;;18.17;12.82;;;17.70;99.90;;;;;;5045467;28;20037;-51
2023/08/20 06:16:35;;;;;;;15.13;12.35;;;17.80;99.90;;;;;;5041784;28;20104;-50
2023/08/20 06:19:00;;;;;;;20.70;12.57;;;17.90;99.90;;;;;;5049803;28;20045;-51
2023/08/20 06:21:26;;;;;;;23.27;13.77;;;18.00;99.90;;;;;;5051921;28;20406;-52
2023/08/20 06:23:52;;;;;;;16.73;13.63;;;18.10;99.90;;;;;;5049992;28;20041;-52
2023/08/20 06:26:18;;;;;;;20.70;13.43;;;18.20;99.90;;;;;;5051298;28;20086;-51
2023/08/20 06:28:44;;;;;;;;;;;18.30;99.90;;;;;;5051108;28;20063;-51
2023/08/20 06:31:10;;;;;;;23.95;13.63;;;18.40;99.90;;;;;;5051167;28;20567;-50
2023/08/20 06:33:35;;;;;;;17.85;12.73;;;18.50;99.90;;;;;;5051186;28;20367;-52
2023/08/20 06:36:01;;;;;;;19.02;10.95;;;18.60;99.90;;;;;;5050516;28;20041;-50
2023/08/20 06:38:26;;;;;;;13.23;11.75;;;18.70;99.90;;;;;;5048056;28;20281;-52
2023/08/20 06:40:53;;;;;;;14.48;9.88;;;18.80;99.90;;;;;;5047702;28;20041;-50
2023/08/20 06:43:18;;;;;;;19.25;11.10;;;18.90;99.90;;;;;;5041649;28;20052;-50
2023/08/20 06:45:44;;;;;;;18.02;10.45;;;19.00;99.90;;;;;;5050865;28;20037;-50
2023/08/20 06:48:10;;;;;;;18.38;9.73;;;19.10;99.90;;;;;;5050075;28;20040;-53
2023/08/20 06:50:35;;;;;;;20.00;9.60;;;19.10;99.90;;;;;;5050940;28;20135;-54
2023/08/20 06:53:01;;;;;;;;;;;19.20;99.90;;;;;;5051836;28;20498;-51
2023/08/20 06:55:26;;;;;;;17.52;11.68;;;19.30;99.90;;;;;;5050565;28;19920;-51
2023/08/20 06:57:52;;;;;;;17.02;10.88;;;19.40;99.90;;;;;;5051085;28;20064;-51
2023/08/20 07:00:19;;;;;;;14.85;11.45;;;19.50;99.90;;;;;;5049915;28;20075;-54
2023/08/20 07:02:44;;;;;;;12.88;10.82;;;19.60;99.90;;;;;;5026968;28;20048;-50
2023/08/20 07:05:10;;;;;;;13.65;9.75;;;19.70;99.90;;;;;;5038053;28;20045;-51
2023/08/20 07:07:36;;;;;;;17.00;11.20;;;19.70;99.90;;;;;;5034818;28;20087;-54
2023/08/20 07:10:03;;;;;;;;;;;19.80;99.90;;;;;;5045254;28;20043;-50
2023/08/20 07:12:29;;;;;;;19.58;10.38;;;19.90;99.90;;;;;;5042276;28;19916;-51
2023/08/20 07:14:54;;;;;;;;;;;19.90;99.90;;;;;;5043301;28;20040;-54
2023/08/20 07:17:20;;;;;;;16.05;9.13;;;19.90;99.90;;;;;;5042734;28;19916;-53
2023/08/20 07:19:45;;;;;;;;;;;20.00;99.90;;;;;;5027990;28;20056;-50
2023/08/20 07:22:11;;;;;;;18.00;9.07;;;20.10;99.90;;;;;;5031975;28;19982;-55
2023/08/20 07:24:36;;;;;;;15.68;7.72;;;20.10;99.90;;;;;;5049614;28;20506;-50
2023/08/20 07:27:03;;;;;;;;;;;20.20;99.90;;;;;;5051669;28;20040;-53
2023/08/20 07:29:29;;;;;;;8.93;5.15;;;20.30;99.90;;;;;;5007685;28;19917;-53
2023/08/20 07:31:56;;;;;;;;;;;20.40;99.90;;;;;;5031422;28;20094;-50
2023/08/20 07:34:21;;;;;;;13.38;4.78;;;20.40;99.90;;;;;;5048821;28;19920;-53
2023/08/20 07:36:47;;;;;;;;;;;20.50;99.90;;;;;;5049922;28;20043;-50
2023/08/20 07:39:14;;;;;;;12.38;4.95;;;20.60;99.90;;;;;;5046938;28;19928;-51
2023/08/20 07:41:40;;;;;;;10.35;4.65;;;20.70;99.90;;;;;;5044156;28;20095;-50
2023/08/20 07:44:05;;;;;;;;;;;20.80;99.90;;;;;;5049913;28;20926;-50
2023/08/20 07:46:31;;;;;;;10.98;4.45;;;20.90;99.90;;;;;;5047520;28;20569;-52
2023/08/20 07:48:57;;;;;;;;;;;21.00;99.90;;;;;;5045688;28;20033;-52
2023/08/20 07:51:22;;;;;;;14.05;5.35;;;21.00;99.90;;;;;;5048973;28;19916;-51
2023/08/20 07:53:48;;;;;;;;;;;21.10;99.90;;;;;;5050993;28;20115;-50
2023/08/20 07:56:13;;;;;;;9.88;3.78;;;21.10;99.90;;;;;;5047998;28;19916;-52
2023/08/20 07:58:39;;;;;;;;;;;21.10;99.90;;;;;;5045071;28;20049;-50
2023/08/20 08:01:05;;;;;;;12.60;3.88;;;21.20;99.90;;;;;;5044968;28;20019;-53
2023/08/20 08:03:30;;;;;;;;;;;21.20;99.90;;;;;;5050333;28;20462;-50
2023/08/20 08:05:56;;;;;;;7.32;2.92;;;21.30;99.90;;;;;;5045247;28;19936;-50
2023/08/20 08:08:22;;;;;;;;;;;21.30;99.90;;;;;;5029928;28;20038;-50
2023/08/20 08:10:48;;;;;;;8.02;3.40;;;21.40;99.90;;;;;;5030354;28;19916;-50
2023/08/20 08:13:21;;;;;;;;;;;21.40;99.90;;;;;;5046020;28;20047;-51
2023/08/20 08:15:47;;;;;;;10.80;2.38;;;21.60;99.90;;;;;;5046804;28;20054;-50
2023/08/20 08:18:12;;;;;;;;;;;21.60;99.90;;;;;;5036895;28;20503;-51
2023/08/20 08:20:38;;;;;;;8.18;2.53;;;21.70;99.90;;;;;;5049259;28;20366;-53
2023/08/20 08:23:03;;;;;;;;;;;21.70;99.90;;;;;;5049681;28;20049;-50
2023/08/20 08:25:29;;;;;;;9.48;2.30;;;21.80;99.90;;;;;;5048973;28;19975;-51
2023/08/20 08:27:55;;;;;;;;;;;21.80;99.90;;;;;;5031656;28;20513;-50
2023/08/20 08:30:20;;;;;;;9.50;1.98;;;21.80;99.90;;;;;;5039191;28;20148;-51
2023/08/20 08:32:46;;;;;;;;;;;21.90;99.90;;;;;;5049628;28;20412;-50
2023/08/20 08:35:11;;;;;;;4.93;1.05;;;21.90;99.90;;;;;;5035170;28;19917;-52
2023/08/20 08:37:37;;;;;;;;;;;22.10;99.90;;;;;;5032905;28;20073;-50
2023/08/20 08:40:06;;;;;;;6.10;1.33;;;22.10;99.90;;;;;;5042719;28;19917;-54
2023/08/20 08:42:33;;;;;;;4.40;0.50;;;22.10;99.90;;;;;;5048546;28;20075;-50
2023/08/20 08:45:03;;;;;;;5.05;0.85;;;22.20;99.90;;;;;;5046531;28;20039;-50
2023/08/20 08:47:29;;;;;;;6.40;1.27;;;22.20;99.90;;;;;;5046124;28;20445;-52
2023/08/20 08:49:58;;;;;;;8.77;1.13;;;22.30;99.90;;;;;;5048585;28;20032;-50
2023/08/20 08:52:25;;;;;;;8.05;1.42;;;22.40;99.90;;;;;;5039145;28;20042;-51
2023/08/20 08:54:54;;;;;;;6.55;1.45;;;22.50;99.90;;;;;;5032079;28;20494;-51
2023/08/20 08:57:20;;;;;;;5.63;0.77;;;22.50;99.90;;;;;;5046535;28;20033;-53
2023/08/20 08:59:45;;;;;;;;;;;22.60;99.90;;;;;;5049193;28;20048;-51
2023/08/20 09:02:12;;;;;;;4.50;0.40;;;22.60;99.90;;;;;;5044134;28;20253;-51
2023/08/20 09:04:42;;;;;;;4.88;0.50;;;22.70;99.90;;;;;;5046164;28;20037;-55
2023/08/20 09:07:15;;;;;;;3.40;0.75;;;22.80;99.90;;;;;;5043085;28;20445;-54
2023/08/20 09:09:46;;;;;;;4.05;0.50;;;22.90;99.90;;;;;;5042164;28;20087;-53
2023/08/20 09:12:16;;;;;;;3.75;0.57;;;23.00;99.90;;;;;;5043955;28;20041;-52
2023/08/20 09:14:52;;;;;;;3.10;0.80;;;23.00;99.90;;;;;;5046002;28;20418;-54
2023/08/20 09:17:19;;;;;;;4.60;0.43;;;22.90;99.90;;;;;;5028254;28;20044;-51
2023/08/20 09:19:46;;;;;;;4.57;0.80;;;23.00;99.90;;;;;;5040047;28;20046;-50
2023/08/20 09:22:12;;;;;;;3.28;0.70;;;23.00;99.90;;;;;;5046569;28;20047;-51
2023/08/20 09:24:46;;;;;;;5.68;1.02;;;23.10;99.90;;;;;;5052405;28;20041;-52
2023/08/20 09:27:13;;;;;;;5.28;0.85;;;23.20;99.90;;;;;;5048974;28;20040;-50
2023/08/20 09:29:45;;;;;;;2.85;0.52;;;23.20;99.90;;;;;;5047671;28;20398;-51
2023/08/20 09:32:23;;;;;;;3.65;0.50;;;23.30;99.90;;;;;;5050821;28;20063;-51
2023/08/20 09:34:50;;;;;;;2.88;0.90;;;23.40;99.90;;;;;;5048654;28;20528;-53
2023/08/20 09:37:18;;;;;;;2.33;0.70;;;23.50;99.90;;;;;;5041375;28;20522;-51
2023/08/20 09:39:43;;;;;;;4.45;0.90;;;23.50;99.90;;;;;;5046406;28;20086;-54
2023/08/20 09:42:10;;;;;;;1.63;0.50;;;23.70;99.90;;;;;;5033566;28;20461;-50
2023/08/20 09:44:38;;;;;;;3.97;0.70;;;23.80;99.90;;;;;;5052682;28;20497;-52
2023/08/20 09:47:15;;;;;;;5.30;0.65;;;24.00;99.90;;;;;;5043663;28;20052;-52
2023/08/20 09:49:43;;;;;;;3.63;0.40;;;24.10;99.90;;;;;;5039136;28;20045;-53
2023/08/20 09:52:11;;;;;;;4.70;0.75;;;24.20;99.90;;;;;;5044627;28;20491;-54
2023/08/20 09:55:03;;;;;;;4.25;0.55;;;24.20;99.90;;;;;;5047832;28;20037;-52
2023/08/20 09:57:39;;;;;;;6.10;0.82;;;24.20;99.90;;;;;;5046069;28;20095;-50
2023/08/20 10:00:09;;;;;;;1.85;0.40;;;24.20;99.90;;;;;;5046686;28;20040;-54
2023/08/20 10:02:36;;;;;;;1.20;0.32;;;24.30;99.90;;;;;;5040089;28;20045;-52
2023/08/20 10:05:05;;;;;;;2.47;0.30;;;24.40;99.90;;;;;;5036663;28;20513;-51
2023/08/20 10:07:31;;;;;;;2.95;0.57;;;24.50;99.90;;;;;;5043418;28;20471;-52
2023/08/20 10:10:00;;;;;;;2.58;0.50;;;24.50;99.90;;;;;;5044283;28;20047;-51
2023/08/20 10:12:29;;;;;;;1.60;0.20;;;24.50;99.90;;;;;;5041299;28;20045;-51
2023/08/20 10:14:59;;;;;;;2.80;0.50;;;24.50;99.90;;;;;;5047196;28;20055;-52
2023/08/20 10:17:25;;;;;;;3.40;0.40;;;24.50;99.90;;;;;;5046373;28;20051;-51
2023/08/20 10:19:53;;;;;;;6.35;0.40;;;24.60;99.90;;;;;;5046770;28;20117;-51
2023/08/20 10:22:20;;;;;;;5.20;0.30;;;24.70;99.90;;;;;;5046158;28;20108;-52
2023/08/20 10:24:51;;;;;;;3.40;0.50;;;24.80;99.90;;;;;;5047160;28;20044;-52
2023/08/20 10:27:27;;;;;;;2.05;0.30;;;24.90;99.90;;;;;;5040365;28;20544;-51
2023/08/20 10:29:54;;;;;;;4.25;0.40;;;25.00;99.90;;;;;;5046414;28;20513;-52
2023/08/20 10:32:20;;;;;;;5.57;0.55;;;25.10;99.90;;;;;;5035195;28;20045;-55
2023/08/20 10:34:57;;;;;;;4.28;0.40;;;25.20;99.90;;;;;;5026867;28;20521;-50
2023/08/20 10:37:30;;;;;;;4.95;1.05;;;25.30;99.90;;;;;;5037815;28;20047;-53
2023/08/20 10:39:56;;;;;;;4.63;0.60;;;25.20;99.90;;;;;;5046565;28;20052;-50
2023/08/20 10:42:28;;;;;;;3.92;0.30;;;25.30;99.90;;;;;;5047059;28;20398;-50
2023/08/20 10:45:05;;;;;;;1.63;0.20;;;25.50;99.90;;;;;;5046456;28;20059;-53
2023/08/20 10:47:43;;;;;;;;;;;25.50;99.90;;;;;;5046325;28;20486;-52
2023/08/20 10:50:11;;;;;;;3.08;0.50;;;25.50;99.90;;;;;;5046327;28;19920;-54
2023/08/20 10:52:41;;;;;;;2.90;0.30;;;25.70;99.90;;;;;;5046316;28;20037;-51
2023/08/20 10:55:08;;;;;;;4.35;0.50;;;25.80;99.90;;;;;;5041034;28;20041;-54
2023/08/20 10:57:35;;;;;;;1.75;0.25;;;25.80;99.90;;;;;;5036595;28;20040;-56
2023/08/20 11:00:09;;;;;;;4.07;0.38;;;25.90;99.90;;;;;;5038903;28;20033;-51
2023/08/20 11:02:36;;;;;;;4.07;0.50;;;26.00;99.90;;;;;;5042099;28;20055;-52
2023/08/20 11:05:04;;;;;;;2.35;0.30;;;25.90;99.90;;;;;;5040188;28;20082;-55
2023/08/20 11:07:31;;;;;;;2.72;0.30;;;26.00;99.90;;;;;;5046084;28;20065;-53
2023/08/20 11:09:57;;;;;;;3.30;0.30;;;26.10;99.90;;;;;;5045593;28;20340;-51
2023/08/20 11:12:23;;;;;;;3.55;0.38;;;26.10;99.90;;;;;;5038559;28;20051;-54
2023/08/20 11:14:49;;;;;;;5.03;0.30;;;26.20;99.90;;;;;;5043226;28;20037;-51
2023/08/20 11:17:15;;;;;;;3.13;0.47;;;26.30;99.90;;;;;;5043290;28;20105;-53
2023/08/20 11:19:40;;;;;;;3.67;0.40;;;26.30;99.90;;;;;;5038591;28;20041;-51
2023/08/20 11:22:07;;;;;;;3.13;0.40;;;26.30;99.90;;;;;;5042421;28;20056;-51
2023/08/20 11:24:33;;;;;;;2.13;0.38;;;26.30;99.90;;;;;;5044148;28;20061;-53
2023/08/20 11:26:59;;;;;;;3.55;0.52;;;26.20;99.90;;;;;;5041664;28;20126;-53
2023/08/20 11:29:26;;;;;;;5.22;0.63;;;26.20;99.90;;;;;;5042112;28;20259;-51
2023/08/20 11:31:52;;;;;;;7.13;0.60;;;26.20;99.90;;;;;;5041512;28;20033;-53
2023/08/20 11:34:19;;;;;;;1.98;0.32;;;26.30;99.90;;;;;;5041343;28;20098;-51
2023/08/20 11:36:44;;;;;;;3.85;0.50;;;26.30;99.90;;;;;;5040428;28;20048;-51
2023/08/20 11:39:10;;;;;;;3.30;0.28;;;26.30;99.90;;;;;;5046539;28;20047;-53
2023/08/20 11:41:37;;;;;;;6.22;0.40;;;26.40;99.90;;;;;;5045102;28;20045;-53
2023/08/20 11:44:03;;;;;;;3.13;0.30;;;26.50;99.90;;;;;;5045121;28;20589;-51
2023/08/20 11:46:29;;;;;;;2.38;0.30;;;26.60;99.90;;;;;;5046445;28;20119;-51
2023/08/20 11:49:09;;;;;;;2.65;0.40;;;26.70;99.90;;;;;;5047909;28;20068;-51
2023/08/20 11:51:46;;;;;;;3.10;0.30;;;26.90;99.90;;;;;;5047446;28;20033;-53
2023/08/20 11:54:14;;;;;;;4.07;0.40;;;27.00;99.90;;;;;;5045830;28;20041;-52
2023/08/20 11:56:47;;;;;;;2.60;0.20;;;27.10;99.70;;;;;;5029790;28;20049;-51
2023/08/20 11:59:14;;;;;;;1.70;0.10;;;27.10;99.40;;;;;;5045093;28;20044;-51
2023/08/20 12:01:40;;;;;;;1.80;0.20;;;27.10;99.40;;;;;;5049623;28;20057;-52
2023/08/20 12:04:10;;;;;;;0.85;0.20;;;27.10;99.50;;;;;;5047582;28;20029;-53
2023/08/20 12:06:37;;;;;;;3.55;0.17;;;27.10;98.50;;;;;;5045941;28;20025;-52
2023/08/20 12:09:23;;;;;;;0.95;0.30;;;27.20;98.70;;;;;;5046081;28;20037;-53
2023/08/20 12:11:52;;;;;;;0.50;0.10;;;27.20;97.50;;;;;;5041358;28;20084;-51
2023/08/20 12:14:19;;;;;;;2.45;0.30;;;27.20;98.30;;;;;;5041887;28;20032;-54
2023/08/20 12:16:45;;;;;;;1.13;0.20;;;27.10;98.00;;;;;;5044842;28;20052;-52
2023/08/20 12:19:10;;;;;;;1.50;0.20;;;27.10;98.00;;;;;;5047194;28;20033;-52
2023/08/20 12:21:36;;;;;;;0.90;0.20;;;27.10;98.10;;;;;;5046904;28;20098;-54
2023/08/20 12:24:03;;;;;;;0.68;0.15;;;27.20;97.90;;;;;;5043282;28;20039;-51
2023/08/20 12:26:28;;;;;;;3.53;0.20;;;27.10;97.30;;;;;;5046042;28;20414;-55
2023/08/20 12:28:54;;;;;;;1.70;0.20;;;27.10;97.60;;;;;;5045240;28;20274;-51
2023/08/20 12:31:20;;;;;;;1.60;0.20;;;27.10;97.20;;;;;;5047267;28;20040;-51
2023/08/20 12:33:45;;;;;;;2.45;0.13;;;27.10;97.30;;;;;;5046539;28;20033;-52
2023/08/20 12:36:11;;;;;;;1.55;0.20;;;27.10;97.70;;;;;;5043564;28;20052;-53
2023/08/20 12:38:37;;;;;;;2.88;0.22;;;27.10;97.40;;;;;;5045717;28;20036;-52
2023/08/20 12:41:04;;;;;;;3.03;0.50;;;27.10;97.10;;;;;;5047487;28;20045;-51
2023/08/20 12:43:30;;;;;;;2.00;0.10;;;27.00;97.40;;;;;;5026671;28;20483;-53
2023/08/20 12:45:55;;;;;;;3.67;0.20;;;26.90;97.40;;;;;;5046938;28;20132;-55